createdAt,value
2017-09-24T00:00:37.854Z,95611.20
2017-09-24T00:03:06.212Z,95609.80
2017-09-24T00:05:34.579Z,95609.73
2017-09-24T00:08:02.966Z,95612.16
2017-09-24T00:10:31.325Z,95605.31
2017-09-24T00:12:59.674Z,95604.17
2017-09-24T00:15:28.036Z,95608.45
2017-09-24T00:17:56.522Z,95612.06
2017-09-24T00:20:24.879Z,95610.04
2017-09-24T00:22:53.226Z,95612.09
2017-09-24T00:25:21.578Z,95603.45
2017-09-24T00:27:49.930Z,95605.52
2017-09-24T00:30:18.430Z,95612.73
2017-09-24T00:32:46.778Z,95612.54
2017-09-24T00:35:15.139Z,95611.98
2017-09-24T00:37:43.486Z,95607.45
2017-09-24T00:40:11.842Z,95603.43
2017-09-24T00:42:40.222Z,95603.50
2017-09-24T00:45:08.571Z,95608.56
2017-09-24T00:47:36.922Z,95606.67
2017-09-24T00:50:05.275Z,95606.70
2017-09-24T00:52:33.626Z,95603.95
2017-09-24T00:55:01.993Z,95602.23
2017-09-24T00:57:30.334Z,95599.34
2017-09-24T00:59:58.822Z,95593.50
2017-09-24T01:02:27.174Z,95587.28
2017-09-24T01:04:55.526Z,95595.04
2017-09-24T01:07:23.882Z,95588.87
2017-09-24T01:09:52.235Z,95590.08
2017-09-24T01:12:20.627Z,95583.56
2017-09-24T01:14:48.986Z,95585.53
2017-09-24T01:17:17.339Z,95587.25
2017-09-24T01:19:45.692Z,95582.37
2017-09-24T01:22:14.043Z,95582.66
2017-09-24T01:24:42.418Z,95585.28
2017-09-24T01:27:10.766Z,95584.89
2017-09-24T01:29:39.162Z,95575.56
2017-09-24T01:32:07.514Z,95573.37
2017-09-24T01:34:35.862Z,95580.41
2017-09-24T01:37:04.214Z,95586.61
2017-09-24T01:39:32.567Z,95584.62
2017-09-24T01:42:00.919Z,95574.00
2017-09-24T01:44:29.275Z,95573.61
2017-09-24T01:46:57.652Z,95575.50
2017-09-24T01:49:26.005Z,95580.98
2017-09-24T01:51:54.482Z,95577.86
2017-09-24T01:54:22.841Z,95567.30
2017-09-24T01:56:51.190Z,95568.64
2017-09-24T01:59:19.552Z,95570.84
2017-09-24T02:01:47.911Z,95569.61
2017-09-24T02:04:16.395Z,95571.80
2017-09-24T02:06:44.758Z,95576.44
2017-09-24T02:09:13.107Z,95567.73
2017-09-24T02:11:41.458Z,95564.70
2017-09-24T02:14:09.810Z,95564.72
2017-09-24T02:16:38.199Z,95560.78
2017-09-24T02:19:06.551Z,95571.27
2017-09-24T02:21:34.926Z,95568.13
2017-09-24T02:24:03.266Z,95570.05
2017-09-24T02:26:31.626Z,95570.66
2017-09-24T02:29:00.102Z,95567.65
2017-09-24T02:31:28.455Z,95572.17
2017-09-24T02:33:56.807Z,95566.05
2017-09-24T02:36:25.166Z,95567.27
2017-09-24T02:38:53.518Z,95575.69
2017-09-24T02:41:21.877Z,95570.57
2017-09-24T02:43:50.228Z,95575.72
2017-09-24T02:46:18.603Z,95575.98
2017-09-24T02:48:46.958Z,95571.08
2017-09-24T02:51:15.312Z,95570.06
2017-09-24T02:53:43.658Z,95572.70
2017-09-24T02:56:12.010Z,95573.77
2017-09-24T02:58:40.362Z,95565.00
2017-09-24T03:01:08.718Z,95569.73
2017-09-24T03:03:37.203Z,95560.73
2017-09-24T03:06:05.555Z,95559.64
2017-09-24T03:08:33.918Z,95564.28
2017-09-24T03:11:02.263Z,95565.54
2017-09-24T03:13:30.611Z,95561.84
2017-09-24T03:15:58.986Z,95557.69
2017-09-24T03:18:27.343Z,95559.52
2017-09-24T03:20:55.696Z,95563.88
2017-09-24T03:23:24.054Z,95558.16
2017-09-24T03:25:52.394Z,95556.69
2017-09-24T03:28:20.747Z,95558.56
2017-09-24T03:30:49.099Z,95552.03
2017-09-24T03:33:17.609Z,95550.02
2017-09-24T03:35:45.956Z,95555.30
2017-09-24T03:38:14.303Z,95556.81
2017-09-24T03:40:42.655Z,95555.09
2017-09-24T03:43:11.006Z,95552.42
2017-09-24T03:45:39.502Z,95552.30
2017-09-24T03:48:07.854Z,95557.00
2017-09-24T03:50:36.207Z,95550.92
2017-09-24T03:53:04.555Z,95556.33
2017-09-24T03:55:32.908Z,95554.70
2017-09-24T03:58:01.306Z,95558.11
2017-09-24T04:00:29.661Z,95561.27
2017-09-24T04:02:58.012Z,95557.90
2017-09-24T04:05:26.365Z,95557.63
2017-09-24T04:07:55.022Z,95558.29
2017-09-24T04:10:23.383Z,95559.98
2017-09-24T04:12:51.735Z,95561.23
2017-09-24T04:15:20.138Z,95563.83
2017-09-24T04:17:48.526Z,95563.89
2017-09-24T04:20:16.883Z,95562.71
2017-09-24T04:22:45.229Z,95564.61
2017-09-24T04:25:13.582Z,95564.80
2017-09-24T04:27:42.062Z,95565.75
2017-09-24T04:30:10.419Z,95571.17
2017-09-24T04:32:38.770Z,95574.44
2017-09-24T04:35:07.127Z,95577.19
2017-09-24T04:37:35.474Z,95576.62
2017-09-24T04:40:03.855Z,95586.53
2017-09-24T04:42:32.202Z,95586.73
2017-09-24T04:45:00.599Z,95579.21
2017-09-24T04:47:28.957Z,95575.20
2017-09-24T04:49:57.312Z,95572.23
2017-09-24T04:52:25.664Z,95575.39
2017-09-24T04:54:54.021Z,95576.41
2017-09-24T04:57:22.398Z,95571.20
2017-09-24T04:59:50.750Z,95575.41
2017-09-24T05:02:19.109Z,95582.98
2017-09-24T05:04:47.455Z,95589.98
2017-09-24T05:07:15.802Z,95590.28
2017-09-24T05:09:44.190Z,95591.19
2017-09-24T05:12:12.536Z,95583.76
2017-09-24T05:14:40.891Z,95587.03
2017-09-24T05:17:09.239Z,95586.98
2017-09-24T05:19:37.595Z,95589.92
2017-09-24T05:22:06.078Z,95592.53
2017-09-24T05:24:34.438Z,95594.39
2017-09-24T05:27:02.790Z,95596.92
2017-09-24T05:29:31.142Z,95596.70
2017-09-24T05:31:59.495Z,95599.85
2017-09-24T05:34:27.975Z,95597.31
2017-09-24T05:36:56.339Z,95596.81
2017-09-24T05:39:24.691Z,95599.28
2017-09-24T05:41:53.045Z,95599.22
2017-09-24T05:44:21.391Z,95601.45
2017-09-24T05:46:49.774Z,95600.41
2017-09-24T05:49:18.123Z,95603.11
2017-09-24T05:51:46.507Z,95604.21
2017-09-24T05:54:14.858Z,95596.25
2017-09-24T05:56:43.246Z,95595.13
2017-09-24T05:59:11.599Z,95590.91
2017-09-24T06:01:39.966Z,95596.20
2017-09-24T06:04:08.447Z,95592.53
2017-09-24T06:06:36.801Z,95594.45
2017-09-24T06:09:05.159Z,95590.17
2017-09-24T06:11:33.515Z,95593.16
2017-09-24T06:14:02.114Z,95590.63
2017-09-24T06:16:31.283Z,95591.80
2017-09-24T06:19:00.624Z,95589.69
2017-09-24T06:21:30.045Z,95597.94
2017-09-24T06:23:58.992Z,95593.84
2017-09-24T06:26:27.779Z,95597.91
2017-09-24T06:28:57.193Z,95602.50
2017-09-24T06:31:26.255Z,95599.65
2017-09-24T06:33:54.916Z,95599.56
2017-09-24T06:36:23.625Z,95607.66
2017-09-24T06:38:52.670Z,95603.17
2017-09-24T06:41:21.558Z,95603.27
2017-09-24T06:43:50.336Z,95611.42
2017-09-24T06:46:19.931Z,95607.72
2017-09-24T06:48:48.906Z,95604.02
2017-09-24T06:51:17.972Z,95607.58
2017-09-24T06:53:46.603Z,95609.13
2017-09-24T06:56:15.546Z,95616.05
2017-09-24T06:58:44.232Z,95606.98
2017-09-24T07:01:13.178Z,95607.92
2017-09-24T07:03:42.140Z,95610.01
2017-09-24T07:06:10.801Z,95613.23
2017-09-24T07:08:39.863Z,95610.64
2017-09-24T07:11:08.587Z,95609.73
2017-09-24T07:13:37.681Z,95616.44
2017-09-24T07:16:06.989Z,95625.71
2017-09-24T07:18:35.766Z,95626.61
2017-09-24T07:21:04.699Z,95627.25
2017-09-24T07:23:33.538Z,95627.98
2017-09-24T07:26:02.610Z,95634.06
2017-09-24T07:28:31.327Z,95629.48
2017-09-24T07:30:59.883Z,95627.75
2017-09-24T07:33:28.226Z,95633.70
2017-09-24T07:35:56.576Z,95632.98
2017-09-24T07:38:24.922Z,95627.45
2017-09-24T07:40:53.266Z,95630.20
2017-09-24T07:43:21.746Z,95632.25
2017-09-24T07:45:50.098Z,95631.20
2017-09-24T07:48:18.434Z,95634.38
2017-09-24T07:50:46.778Z,95632.59
2017-09-24T07:53:15.127Z,95633.97
2017-09-24T07:55:43.499Z,95627.05
2017-09-24T07:58:11.854Z,95631.08
2017-09-24T08:00:40.198Z,95628.88
2017-09-24T08:03:08.551Z,95632.52
2017-09-24T08:05:36.890Z,95632.13
2017-09-24T08:08:05.271Z,95629.91
2017-09-24T08:10:33.611Z,95628.61
2017-09-24T08:13:01.950Z,95640.48
2017-09-24T08:15:30.298Z,95626.06
2017-09-24T08:17:58.640Z,95634.02
2017-09-24T08:20:27.015Z,95635.11
2017-09-24T08:22:55.361Z,95642.51
2017-09-24T08:25:23.734Z,95629.04
2017-09-24T08:27:52.097Z,95624.23
2017-09-24T08:30:20.440Z,95630.66
2017-09-24T08:32:48.790Z,95630.42
2017-09-24T08:35:17.139Z,95634.70
2017-09-24T08:37:45.483Z,95637.77
2017-09-24T08:40:13.831Z,95638.84
2017-09-24T08:42:42.179Z,95639.36
2017-09-24T08:45:10.538Z,95643.45
2017-09-24T08:47:38.931Z,95644.55
2017-09-24T08:50:07.284Z,95640.75
2017-09-24T08:52:35.635Z,95639.72
2017-09-24T08:55:03.975Z,95645.14
2017-09-24T08:57:32.332Z,95648.71
2017-09-24T09:00:00.802Z,95648.08
2017-09-24T09:02:29.146Z,95647.93
2017-09-24T09:04:57.496Z,95659.39
2017-09-24T09:07:25.843Z,95647.30
2017-09-24T09:09:54.187Z,95652.17
2017-09-24T09:12:22.643Z,95646.22
2017-09-24T09:14:50.995Z,95643.38
2017-09-24T09:17:19.341Z,95643.13
2017-09-24T09:19:47.690Z,95637.73
2017-09-24T09:22:16.037Z,95643.83
2017-09-24T09:24:44.386Z,95645.33
2017-09-24T09:27:12.733Z,95641.95
2017-09-24T09:29:41.213Z,95643.31
2017-09-24T09:32:09.555Z,95638.38
2017-09-24T09:34:37.911Z,95634.59
2017-09-24T09:37:06.251Z,95632.72
2017-09-24T09:39:34.595Z,95637.82
2017-09-24T09:42:03.066Z,95632.61
2017-09-24T09:44:43.214Z,95629.56
2017-09-24T09:47:23.215Z,95633.41
2017-09-24T09:49:51.566Z,95632.35
2017-09-24T09:52:19.907Z,95632.66
2017-09-24T09:54:48.282Z,95628.02
2017-09-24T09:57:16.632Z,95626.45
2017-09-24T09:59:45.083Z,95623.33
2017-09-24T10:02:13.434Z,95621.52
2017-09-24T10:04:41.781Z,95632.30
2017-09-24T10:07:21.811Z,95627.36
2017-09-24T10:10:01.707Z,95628.48
2017-09-24T10:12:30.057Z,95627.13
2017-09-24T10:14:58.415Z,95631.72
2017-09-24T10:17:26.784Z,95631.45
2017-09-24T10:19:55.130Z,95629.97
2017-09-24T10:22:23.606Z,95631.09
2017-09-24T10:24:51.954Z,95636.05
2017-09-24T10:27:20.301Z,95632.39
2017-09-24T10:30:00.407Z,95639.06
2017-09-24T10:32:28.799Z,95638.66
2017-09-24T10:34:57.147Z,95635.73
2017-09-24T10:37:25.496Z,95627.86
2017-09-24T10:39:53.868Z,95637.09
2017-09-24T10:42:22.246Z,95632.22
2017-09-24T10:44:50.623Z,95630.36
2017-09-24T10:47:19.322Z,95635.19
2017-09-24T10:49:48.078Z,95636.25
2017-09-24T10:52:16.495Z,95633.79
2017-09-24T10:54:44.858Z,95631.48
2017-09-24T10:57:13.208Z,95629.91
2017-09-24T10:59:41.567Z,95631.06
2017-09-24T11:02:09.951Z,95633.77
2017-09-24T11:04:38.315Z,95635.03
2017-09-24T11:07:06.715Z,95632.09
2017-09-24T11:09:36.017Z,95640.87
2017-09-24T11:12:04.511Z,95636.13
2017-09-24T11:14:37.595Z,95644.91
2017-09-24T11:17:06.277Z,95635.52
2017-09-24T11:19:34.746Z,95643.50
2017-09-24T11:22:04.378Z,95642.85
2017-09-24T11:24:32.874Z,95644.94
2017-09-24T11:27:01.380Z,95632.63
2017-09-24T11:29:29.927Z,95635.80
2017-09-24T11:31:58.403Z,95634.20
2017-09-24T11:34:26.875Z,95627.88
2017-09-24T11:36:55.400Z,95626.27
2017-09-24T11:39:23.900Z,95626.98
2017-09-24T11:41:52.482Z,95621.47
2017-09-24T11:44:20.980Z,95620.33
2017-09-24T11:46:51.288Z,95628.40
2017-09-24T11:49:20.413Z,95624.27
2017-09-24T11:51:50.823Z,95624.70
2017-09-24T11:54:20.142Z,95627.12
2017-09-24T11:56:49.240Z,95630.95
2017-09-24T11:59:17.800Z,95632.35
2017-09-24T12:01:46.386Z,95634.45
2017-09-24T12:04:18.926Z,95631.48
2017-09-24T12:06:49.054Z,95633.86
2017-09-24T12:09:17.508Z,95634.16
2017-09-24T12:11:46.361Z,95634.72
2017-09-24T12:14:16.851Z,95634.39
2017-09-24T12:16:47.273Z,95633.95
2017-09-24T12:19:15.929Z,95631.69
2017-09-24T12:21:44.400Z,95632.61
2017-09-24T12:24:16.961Z,95630.09
2017-09-24T12:26:45.860Z,95617.10
2017-09-24T12:29:14.556Z,95619.45
2017-09-24T12:31:43.211Z,95613.98
2017-09-24T12:34:11.676Z,95619.81
2017-09-24T12:37:00.197Z,95617.28
2017-09-24T12:39:37.833Z,95617.17
2017-09-24T12:42:06.772Z,95617.08
2017-09-24T12:44:37.033Z,95618.39
2017-09-24T12:47:10.362Z,95617.63
2017-09-24T12:49:39.701Z,95610.02
2017-09-24T12:52:09.937Z,95606.67
2017-09-24T13:00:33.404Z,95610.16
2017-09-24T13:12:22.622Z,95610.30
2017-09-24T13:16:52.570Z,95613.12
2017-09-24T13:22:52.101Z,95602.56
2017-09-24T13:28:32.257Z,95602.31
2017-09-24T13:34:29.396Z,95605.25
2017-09-24T13:43:17.090Z,95604.56
2017-09-24T13:52:23.602Z,95602.88
2017-09-24T13:54:53.130Z,95596.63
2017-09-24T13:57:21.996Z,95602.11
2017-09-24T13:59:50.662Z,95600.52
2017-09-24T14:02:19.583Z,95603.98
2017-09-24T14:04:47.969Z,95600.66
2017-09-24T14:07:16.300Z,95603.28
2017-09-24T14:09:45.799Z,95611.50
2017-09-24T16:07:42.179Z,95625.80
2017-09-24T16:10:10.519Z,95627.85
2017-09-24T16:12:38.867Z,95625.63
2017-09-24T16:15:07.211Z,95627.93
2017-09-24T16:17:35.554Z,95630.78
2017-09-24T16:20:03.923Z,95633.77
2017-09-24T16:22:32.270Z,95628.22
2017-09-24T16:25:00.642Z,95628.70
2017-09-24T16:27:29.011Z,95628.59
2017-09-24T16:29:57.467Z,95629.47
2017-09-24T16:32:25.854Z,95623.47
2017-09-24T16:34:54.198Z,95621.90
2017-09-24T16:37:22.571Z,95624.67
2017-09-24T16:39:50.902Z,95623.86
2017-09-24T16:42:19.551Z,95621.12
2017-09-24T16:44:47.904Z,95618.20
2017-09-24T16:47:16.309Z,95625.42
2017-09-24T16:49:44.680Z,95621.67
2017-09-24T16:52:13.040Z,95622.34
2017-09-24T16:54:41.418Z,95615.53
2017-09-24T16:57:09.749Z,95618.61
2017-09-24T16:59:38.114Z,95621.33
2017-09-24T17:02:06.608Z,95619.44
2017-09-24T17:04:34.974Z,95620.08
2017-09-24T17:07:03.491Z,95624.16
2017-09-24T17:09:31.845Z,95619.02
2017-09-24T17:12:00.181Z,95628.09
2017-09-24T17:14:28.566Z,95622.86
2017-09-24T17:16:57.743Z,95618.87
2017-09-24T17:19:26.114Z,95624.98
2017-09-24T17:21:54.451Z,95621.53
2017-09-24T17:24:22.814Z,95632.33
2017-09-24T17:26:51.148Z,95626.80
2017-09-24T17:29:19.491Z,95632.41
2017-09-24T17:31:47.842Z,95638.36
2017-09-24T17:34:16.183Z,95636.86
2017-09-24T17:36:44.525Z,95635.14
2017-09-24T17:39:12.866Z,95637.73
2017-09-24T17:41:41.203Z,95640.36
2017-09-24T17:44:09.546Z,95639.00
2017-09-24T17:46:37.907Z,95647.53
2017-09-24T17:49:06.270Z,95651.45
2017-09-24T17:51:34.627Z,95653.68
2017-09-24T17:54:03.195Z,95657.48
2017-09-24T17:56:31.543Z,95649.13
2017-09-24T17:58:59.919Z,95646.09
2017-09-24T18:01:28.248Z,95645.88
2017-09-24T18:03:56.610Z,95644.41
2017-09-24T18:06:24.960Z,95648.81
2017-09-24T18:08:53.319Z,95640.17
2017-09-24T18:11:21.669Z,95642.89
2017-09-24T18:13:50.016Z,95650.34
2017-09-24T18:16:18.382Z,95653.45
2017-09-24T18:18:46.718Z,95655.53
2017-09-24T18:21:15.087Z,95658.18
2017-09-24T18:23:43.460Z,95661.36
2017-09-24T18:26:11.850Z,95663.70
2017-09-24T18:28:40.220Z,95666.83
2017-09-24T18:31:08.576Z,95664.89
2017-09-24T18:33:36.950Z,95665.19
2017-09-24T18:36:05.306Z,95663.20
2017-09-24T18:38:33.694Z,95663.11
2017-09-24T18:41:02.455Z,95668.39
2017-09-24T18:43:30.880Z,95671.17
2017-09-24T18:45:59.864Z,95661.57
2017-09-24T18:48:28.343Z,95659.73
2017-09-24T18:50:56.690Z,95657.40
2017-09-24T18:53:25.047Z,95660.84
2017-09-24T18:55:53.607Z,95657.88
2017-09-24T18:58:27.758Z,95656.14
2017-09-24T19:00:57.668Z,95654.91
2017-09-24T19:03:26.563Z,95653.34
2017-09-24T19:05:54.911Z,95653.73
2017-09-24T19:08:23.265Z,95656.20
2017-09-24T19:10:51.639Z,95657.71
2017-09-24T19:13:19.995Z,95654.35
2017-09-24T19:15:48.474Z,95655.73
2017-09-24T19:18:17.111Z,95657.40
2017-09-24T19:20:45.810Z,95653.94
2017-09-24T19:23:14.183Z,95661.33
2017-09-24T19:25:42.589Z,95651.61
2017-09-24T19:28:11.223Z,95660.69
2017-09-24T19:30:39.574Z,95650.42
2017-09-24T19:33:07.918Z,95653.13
2017-09-24T19:35:36.280Z,95650.22
2017-09-24T19:38:04.626Z,95657.98
2017-09-24T19:40:33.010Z,95660.67
2017-09-24T19:43:01.359Z,95654.35
2017-09-24T19:45:29.707Z,95647.22
2017-09-24T19:47:58.086Z,95651.34
2017-09-24T19:50:26.434Z,95654.41
2017-09-24T19:52:54.809Z,95650.98
2017-09-24T19:55:23.157Z,95646.20
2017-09-24T19:57:51.534Z,95647.84
2017-09-24T20:00:19.908Z,95646.72
2017-09-24T20:02:48.266Z,95650.73
2017-09-24T20:05:16.643Z,95651.00
2017-09-24T20:07:45.016Z,95644.89
2017-09-24T20:10:13.386Z,95647.66
2017-09-24T20:12:41.855Z,95650.00
2017-09-24T20:15:10.471Z,95647.20
2017-09-24T20:17:38.825Z,95644.97
2017-09-24T20:20:07.166Z,95645.30
2017-09-24T20:22:35.518Z,95648.96
2017-09-24T20:25:03.872Z,95652.41
2017-09-24T20:27:32.251Z,95654.23
2017-09-24T20:30:00.632Z,95651.88
2017-09-24T20:32:28.979Z,95646.95
2017-09-24T20:34:57.358Z,95644.69
2017-09-24T20:37:25.703Z,95641.97
2017-09-24T20:39:54.085Z,95647.59
2017-09-24T20:42:22.442Z,95646.12
2017-09-24T20:44:50.816Z,95635.43
2017-09-24T20:47:19.166Z,95638.21
2017-09-24T20:49:47.524Z,95634.98
2017-09-24T20:52:15.876Z,95636.08
2017-09-24T20:54:44.230Z,95635.44
2017-09-24T20:57:12.579Z,95634.22
2017-09-24T20:59:41.035Z,95640.21
2017-09-24T21:02:09.399Z,95636.12
2017-09-24T21:04:37.738Z,95633.23
2017-09-24T21:07:06.094Z,95636.62
2017-09-24T21:09:34.466Z,95640.77
2017-09-24T21:12:02.820Z,95638.80
2017-09-24T21:14:31.167Z,95637.68
2017-09-24T21:16:59.522Z,95640.16
2017-09-24T21:19:27.876Z,95644.97
2017-09-24T21:21:56.250Z,95642.30
2017-09-24T21:24:24.623Z,95641.76
2017-09-24T21:26:52.971Z,95639.09
2017-09-24T21:29:21.320Z,95634.99
2017-09-24T21:31:49.671Z,95641.70
2017-09-24T21:34:18.019Z,95643.14
2017-09-24T21:36:46.392Z,95640.21
2017-09-24T21:39:14.763Z,95639.55
2017-09-24T21:41:43.114Z,95639.14
2017-09-24T21:44:12.242Z,95640.03
2017-09-24T21:46:40.590Z,95641.52
2017-09-24T21:49:08.942Z,95641.48
2017-09-24T21:51:37.288Z,95632.91
2017-09-24T21:54:05.636Z,95634.84
2017-09-24T21:56:34.011Z,95630.92
2017-09-24T21:59:02.395Z,95628.81
2017-09-24T22:01:30.771Z,95629.94
2017-09-24T22:03:59.117Z,95627.73
2017-09-24T22:06:27.495Z,95622.95
2017-09-24T22:08:55.841Z,95627.86
2017-09-24T22:11:24.200Z,95631.32
2017-09-24T22:13:52.543Z,95633.42
2017-09-24T22:16:20.892Z,95629.03
2017-09-24T22:18:49.388Z,95625.13
2017-09-24T22:21:17.734Z,95630.92
2017-09-24T22:23:46.085Z,95627.80
2017-09-24T22:26:14.427Z,95638.29
2017-09-24T22:28:42.776Z,95631.95
2017-09-24T22:31:11.126Z,95632.07
2017-09-24T22:33:39.533Z,95626.64
2017-09-24T22:36:07.929Z,95622.33
2017-09-24T22:38:36.254Z,95617.89
2017-09-24T22:41:04.730Z,95614.32
2017-09-24T22:43:33.078Z,95628.98
2017-09-24T22:46:01.762Z,95623.48
2017-09-24T22:48:30.135Z,95620.90
2017-09-24T22:50:58.485Z,95614.83
2017-09-24T22:53:26.830Z,95616.77
2017-09-24T22:55:55.227Z,95613.85
2017-09-24T22:58:23.596Z,95615.58
2017-09-24T23:00:51.972Z,95619.74
2017-09-24T23:03:20.319Z,95618.57
2017-09-24T23:05:48.695Z,95617.03
2017-09-24T23:08:17.044Z,95615.48
2017-09-24T23:10:45.398Z,95617.45
2017-09-24T23:13:13.750Z,95609.77
2017-09-24T23:15:42.095Z,95608.84
2017-09-24T23:18:10.470Z,95603.08
2017-09-24T23:20:38.820Z,95612.47
2017-09-24T23:23:07.158Z,95610.30
2017-09-24T23:25:35.635Z,95600.61
2017-09-24T23:28:03.983Z,95600.70
2017-09-24T23:30:32.338Z,95603.25
2017-09-24T23:33:00.682Z,95598.95
2017-09-24T23:35:29.034Z,95598.41
2017-09-24T23:37:57.407Z,95595.55
2017-09-24T23:40:25.779Z,95600.34
2017-09-24T23:42:54.149Z,95604.77
2017-09-24T23:45:22.525Z,95596.75
2017-09-24T23:47:50.867Z,95597.51
2017-09-24T23:50:19.214Z,95593.05
2017-09-24T23:52:47.595Z,95601.64
2017-09-24T23:55:15.943Z,95604.70
2017-09-24T23:57:44.323Z,95599.23
